createdAt,value
2017-07-19T00:00:38.321Z,1008.44
2017-07-19T00:01:38.308Z,1008.43
2017-07-19T00:02:38.293Z,1008.43
2017-07-19T00:03:38.282Z,1008.42
2017-07-19T00:04:38.268Z,1008.41
2017-07-19T00:05:38.252Z,1008.37
2017-07-19T00:06:38.240Z,1008.32
2017-07-19T00:07:38.231Z,1008.31
2017-07-19T00:08:38.238Z,1008.28
2017-07-19T00:09:38.196Z,1008.27
2017-07-19T00:10:38.187Z,1008.24
2017-07-19T00:11:38.183Z,1008.21
2017-07-19T00:12:38.161Z,1008.22
2017-07-19T00:13:38.145Z,1008.19
2017-07-19T00:14:38.135Z,1008.19
2017-07-19T00:15:38.121Z,1008.19
2017-07-19T00:16:38.113Z,1008.21
2017-07-19T00:17:38.093Z,1008.21
2017-07-19T00:18:38.085Z,1008.18
2017-07-19T00:19:38.074Z,1008.17
2017-07-19T00:20:38.053Z,1008.17
2017-07-19T00:21:38.042Z,1008.14
2017-07-19T00:22:38.029Z,1008.14
2017-07-19T00:23:38.015Z,1008.1
2017-07-19T00:24:38.004Z,1008.07
2017-07-19T00:25:37.987Z,1008.04
2017-07-19T00:26:37.973Z,1008.11
2017-07-19T00:27:37.963Z,1008.08
2017-07-19T00:28:37.948Z,1008
2017-07-19T00:29:37.934Z,1007.98
2017-07-19T00:30:37.928Z,1007.99
2017-07-19T00:31:37.908Z,1008.01
2017-07-19T00:32:37.893Z,1007.98
2017-07-19T00:33:37.881Z,1008
2017-07-19T00:34:37.868Z,1008.01
2017-07-19T00:35:37.861Z,1007.99
2017-07-19T00:36:37.847Z,1008.01
2017-07-19T00:37:37.834Z,1007.96
2017-07-19T00:38:37.821Z,1007.98
2017-07-19T00:39:37.803Z,1007.95
2017-07-19T00:40:37.789Z,1007.91
2017-07-19T00:41:37.773Z,1007.95
2017-07-19T00:42:37.765Z,1007.9
2017-07-19T00:43:37.747Z,1007.95
2017-07-19T00:44:37.735Z,1007.95
2017-07-19T00:45:37.723Z,1007.94
2017-07-19T00:46:37.702Z,1007.87
2017-07-19T00:47:37.696Z,1007.95
2017-07-19T00:48:37.683Z,1007.93
2017-07-19T00:49:37.665Z,1007.92
2017-07-19T00:50:37.650Z,1007.91
2017-07-19T00:51:37.638Z,1007.86
2017-07-19T00:52:37.623Z,1007.91
2017-07-19T00:53:37.614Z,1007.88
2017-07-19T00:54:37.602Z,1007.87
2017-07-19T00:55:37.584Z,1007.86
2017-07-19T00:56:37.576Z,1007.84
2017-07-19T00:57:37.557Z,1007.77
2017-07-19T00:58:37.544Z,1007.84
2017-07-19T00:59:37.534Z,1007.8
2017-07-19T01:00:37.517Z,1007.81
2017-07-19T01:01:37.501Z,1007.77
2017-07-19T01:02:37.501Z,1007.79
2017-07-19T01:03:37.483Z,1007.79
2017-07-19T01:04:37.474Z,1007.78
2017-07-19T01:05:37.465Z,1007.78
2017-07-19T01:06:37.435Z,1007.76
2017-07-19T01:07:37.425Z,1007.74
2017-07-19T01:08:37.418Z,1007.7
2017-07-19T01:09:37.403Z,1007.69
2017-07-19T01:10:37.384Z,1007.7
2017-07-19T01:11:37.368Z,1007.68
2017-07-19T01:12:37.356Z,1007.69
2017-07-19T01:13:37.344Z,1007.66
2017-07-19T01:14:37.336Z,1007.67
2017-07-19T01:15:37.316Z,1007.64
2017-07-19T01:16:37.300Z,1007.62
2017-07-19T01:17:37.287Z,1007.62
2017-07-19T01:18:37.272Z,1007.62
2017-07-19T01:19:37.275Z,1007.57
2017-07-19T01:20:37.246Z,1007.57
2017-07-19T01:21:37.232Z,1007.56
2017-07-19T01:22:37.221Z,1007.55
2017-07-19T01:23:37.203Z,1007.56
2017-07-19T01:24:37.216Z,1007.54
2017-07-19T01:25:37.184Z,1007.51
2017-07-19T01:26:37.165Z,1007.51
2017-07-19T01:27:37.154Z,1007.52
2017-07-19T01:28:37.147Z,1007.5
2017-07-19T01:29:37.125Z,1007.48
2017-07-19T01:30:37.114Z,1007.53
2017-07-19T01:31:37.095Z,1007.48
2017-07-19T01:32:37.088Z,1007.48
2017-07-19T01:33:37.072Z,1007.47
2017-07-19T01:34:37.052Z,1007.41
2017-07-19T01:35:37.047Z,1007.4
2017-07-19T01:36:37.028Z,1007.4
2017-07-19T01:37:37.018Z,1007.38
2017-07-19T01:38:36.997Z,1007.38
2017-07-19T01:39:36.985Z,1007.35
2017-07-19T01:40:36.970Z,1007.35
2017-07-19T01:41:36.964Z,1007.32
2017-07-19T01:42:36.945Z,1007.26
2017-07-19T01:43:36.936Z,1007.28
2017-07-19T01:44:36.917Z,1007.29
2017-07-19T01:45:36.903Z,1007.29
2017-07-19T01:46:36.889Z,1007.29
2017-07-19T01:47:36.874Z,1007.28
2017-07-19T01:48:36.864Z,1007.3
2017-07-19T01:49:36.848Z,1007.25
2017-07-19T01:50:36.835Z,1007.3
2017-07-19T01:51:36.822Z,1007.28
2017-07-19T01:52:36.806Z,1007.28
2017-07-19T01:53:36.793Z,1007.26
2017-07-19T01:54:36.784Z,1007.29
2017-07-19T01:55:36.762Z,1007.29
2017-07-19T01:56:36.752Z,1007.25
2017-07-19T01:57:36.737Z,1007.24
2017-07-19T01:58:36.727Z,1007.23
2017-07-19T01:59:36.709Z,1007.23
2017-07-19T02:00:36.695Z,1007.21
2017-07-19T02:01:36.685Z,1007.24
2017-07-19T02:02:36.682Z,1007.22
2017-07-19T02:03:36.655Z,1007.2
2017-07-19T02:04:36.646Z,1007.19
2017-07-19T02:05:36.628Z,1007.18
2017-07-19T02:06:36.617Z,1007.2
2017-07-19T02:07:36.596Z,1007.22
2017-07-19T02:08:36.581Z,1007.2
2017-07-19T02:09:36.579Z,1007.2
2017-07-19T02:10:36.555Z,1007.19
2017-07-19T02:11:36.656Z,1007.19
2017-07-19T02:12:36.527Z,1007.2
2017-07-19T02:13:36.650Z,1007.16
2017-07-19T02:14:36.501Z,1007.17
2017-07-19T02:15:36.498Z,1007.17
2017-07-19T02:16:36.475Z,1007.14
2017-07-19T02:17:36.458Z,1007.16
2017-07-19T02:18:36.445Z,1007.14
2017-07-19T02:19:36.534Z,1007.11
2017-07-19T02:20:36.422Z,1007.14
2017-07-19T02:21:36.415Z,1007.13
2017-07-19T02:22:36.398Z,1007.13
2017-07-19T02:23:36.429Z,1007.12
2017-07-19T02:24:36.365Z,1007.11
2017-07-19T02:25:36.357Z,1007.08
2017-07-19T02:26:36.340Z,1007.04
2017-07-19T02:27:36.325Z,1007.05
2017-07-19T02:28:36.308Z,1007.04
2017-07-19T02:29:36.343Z,1007.02
2017-07-19T02:30:36.280Z,1006.98
2017-07-19T02:31:36.274Z,1006.99
2017-07-19T02:32:36.250Z,1006.99
2017-07-19T02:33:36.292Z,1007
2017-07-19T02:34:36.225Z,1006.99
2017-07-19T02:35:36.213Z,1007
2017-07-19T02:36:36.197Z,1007.01
2017-07-19T02:37:36.187Z,1006.99
2017-07-19T02:38:36.176Z,1007.01
2017-07-19T02:39:36.156Z,1007.03
2017-07-19T02:40:36.149Z,1007.02
2017-07-19T02:41:36.137Z,1006.99
2017-07-19T02:42:36.118Z,1006.99
2017-07-19T02:43:36.101Z,1007.02
2017-07-19T02:44:36.084Z,1006.99
2017-07-19T02:45:36.071Z,1007
2017-07-19T02:46:36.056Z,1006.96
2017-07-19T02:47:36.043Z,1006.92
2017-07-19T02:48:36.031Z,1006.93
2017-07-19T02:49:36.016Z,1006.89
2017-07-19T02:50:36.001Z,1006.88
2017-07-19T02:51:35.989Z,1006.83
2017-07-19T02:52:35.974Z,1006.85
2017-07-19T02:53:35.970Z,1006.83
2017-07-19T02:54:35.947Z,1006.81
2017-07-19T02:55:35.936Z,1006.82
2017-07-19T02:56:35.926Z,1006.78
2017-07-19T02:57:35.904Z,1006.76
2017-07-19T02:58:35.890Z,1006.76
2017-07-19T02:59:35.878Z,1006.77
2017-07-19T03:00:35.867Z,1006.78
2017-07-19T03:01:35.849Z,1006.78
2017-07-19T03:02:35.838Z,1006.76
2017-07-19T03:03:35.820Z,1006.8
2017-07-19T03:04:35.812Z,1006.79
2017-07-19T03:05:35.796Z,1006.75
2017-07-19T03:06:35.776Z,1006.8
2017-07-19T03:07:35.767Z,1006.75
2017-07-19T03:08:35.751Z,1006.7
2017-07-19T03:09:35.738Z,1006.67
2017-07-19T03:10:35.725Z,1006.71
2017-07-19T03:11:35.717Z,1006.71
2017-07-19T03:12:35.696Z,1006.74
2017-07-19T03:13:35.681Z,1006.71
2017-07-19T03:14:35.667Z,1006.7
2017-07-19T03:15:35.654Z,1006.72
2017-07-19T03:16:35.638Z,1006.7
2017-07-19T03:17:35.625Z,1006.72
2017-07-19T03:18:35.625Z,1006.7
2017-07-19T03:19:35.597Z,1006.7
2017-07-19T03:20:35.603Z,1006.7
2017-07-19T03:21:35.574Z,1006.68
2017-07-19T03:22:35.556Z,1006.72
2017-07-19T03:23:35.545Z,1006.69
2017-07-19T03:24:35.526Z,1006.7
2017-07-19T03:25:35.515Z,1006.72
2017-07-19T03:26:35.497Z,1006.69
2017-07-19T03:27:35.486Z,1006.71
2017-07-19T03:28:35.476Z,1006.72
2017-07-19T03:29:35.457Z,1006.72
2017-07-19T03:30:35.455Z,1006.72
2017-07-19T03:31:35.434Z,1006.72
2017-07-19T03:32:35.416Z,1006.7
2017-07-19T03:33:35.404Z,1006.73
2017-07-19T03:34:35.383Z,1006.73
2017-07-19T03:35:35.389Z,1006.68
2017-07-19T03:36:35.366Z,1006.7
2017-07-19T03:37:35.344Z,1006.67
2017-07-19T03:38:35.330Z,1006.72
2017-07-19T03:39:35.317Z,1006.69
2017-07-19T03:40:35.307Z,1006.7
2017-07-19T03:41:35.286Z,1006.71
2017-07-19T03:42:35.277Z,1006.71
2017-07-19T03:43:35.264Z,1006.69
2017-07-19T03:44:35.244Z,1006.72
2017-07-19T03:45:35.235Z,1006.7
2017-07-19T03:46:35.215Z,1006.71
2017-07-19T03:47:35.206Z,1006.67
2017-07-19T03:48:35.189Z,1006.67
2017-07-19T03:49:35.177Z,1006.69
2017-07-19T03:50:35.161Z,1006.68
2017-07-19T03:51:35.147Z,1006.66
2017-07-19T03:52:35.129Z,1006.66
2017-07-19T03:53:35.120Z,1006.63
2017-07-19T03:54:35.106Z,1006.66
2017-07-19T03:55:35.095Z,1006.64
2017-07-19T03:56:35.075Z,1006.63
2017-07-19T03:57:35.059Z,1006.67
2017-07-19T03:58:35.054Z,1006.65
2017-07-19T03:59:35.031Z,1006.66
2017-07-19T04:00:35.025Z,1006.65
2017-07-19T04:01:35.005Z,1006.61
2017-07-19T04:02:35.045Z,1006.64
2017-07-19T04:03:34.975Z,1006.64
2017-07-19T04:04:34.962Z,1006.6
2017-07-19T04:05:34.944Z,1006.62
2017-07-19T04:06:34.933Z,1006.6
2017-07-19T04:07:34.920Z,1006.63
2017-07-19T04:08:34.907Z,1006.63
2017-07-19T04:09:34.893Z,1006.61
2017-07-19T04:10:34.878Z,1006.6
2017-07-19T04:11:34.866Z,1006.61
2017-07-19T04:12:34.849Z,1006.58
2017-07-19T04:13:34.835Z,1006.57
2017-07-19T04:14:34.870Z,1006.57
2017-07-19T04:15:34.805Z,1006.55
2017-07-19T04:16:34.795Z,1006.54
2017-07-19T04:17:34.776Z,1006.56
2017-07-19T04:18:34.777Z,1006.57
2017-07-19T04:19:34.749Z,1006.59
2017-07-19T04:20:34.734Z,1006.59
2017-07-19T04:21:34.726Z,1006.64
2017-07-19T04:22:34.706Z,1006.59
2017-07-19T04:23:34.695Z,1006.61
2017-07-19T04:24:34.683Z,1006.59
2017-07-19T04:25:34.667Z,1006.6
2017-07-19T04:26:34.652Z,1006.62
2017-07-19T04:27:34.636Z,1006.63
2017-07-19T04:28:34.622Z,1006.57
2017-07-19T04:29:34.607Z,1006.58
2017-07-19T04:30:34.592Z,1006.56
2017-07-19T04:31:34.585Z,1006.55
2017-07-19T04:32:34.575Z,1006.51
2017-07-19T04:33:34.551Z,1006.53
2017-07-19T04:34:34.540Z,1006.48
2017-07-19T04:35:34.528Z,1006.47
2017-07-19T04:36:34.516Z,1006.48
2017-07-19T04:37:34.495Z,1006.47
2017-07-19T04:38:34.488Z,1006.47
2017-07-19T04:39:34.464Z,1006.48
2017-07-19T04:40:34.450Z,1006.46
2017-07-19T04:41:34.453Z,1006.47
2017-07-19T04:42:34.424Z,1006.48
2017-07-19T04:43:34.415Z,1006.5
2017-07-19T04:44:34.396Z,1006.46
2017-07-19T04:45:34.384Z,1006.47
2017-07-19T04:46:34.374Z,1006.49
2017-07-19T04:47:34.356Z,1006.47
2017-07-19T04:48:34.338Z,1006.49
2017-07-19T04:49:34.324Z,1006.5
2017-07-19T04:50:34.313Z,1006.49
2017-07-19T04:51:34.294Z,1006.48
2017-07-19T04:52:34.285Z,1006.49
2017-07-19T04:53:34.275Z,1006.48
2017-07-19T04:54:34.260Z,1006.46
2017-07-19T04:55:34.246Z,1006.45
2017-07-19T04:56:34.229Z,1006.48
2017-07-19T04:57:34.210Z,1006.46
2017-07-19T04:58:34.205Z,1006.51
2017-07-19T04:59:34.184Z,1006.48
2017-07-19T05:00:34.172Z,1006.47
2017-07-19T05:01:34.164Z,1006.43
2017-07-19T05:02:34.143Z,1006.46
2017-07-19T05:03:34.127Z,1006.44
2017-07-19T05:04:34.114Z,1006.43
2017-07-19T05:05:34.104Z,1006.43
2017-07-19T05:06:34.087Z,1006.41
2017-07-19T05:07:34.074Z,1006.39
2017-07-19T05:08:34.060Z,1006.42
2017-07-19T05:09:34.044Z,1006.41
2017-07-19T05:10:34.030Z,1006.42
2017-07-19T05:11:34.019Z,1006.39
2017-07-19T05:12:34.002Z,1006.41
2017-07-19T05:13:33.993Z,1006.45
2017-07-19T05:14:33.973Z,1006.41
2017-07-19T05:15:33.964Z,1006.43
2017-07-19T05:16:33.948Z,1006.42
2017-07-19T05:17:33.933Z,1006.43
2017-07-19T05:18:33.919Z,1006.47
2017-07-19T05:19:33.906Z,1006.42
2017-07-19T05:20:33.892Z,1006.43
2017-07-19T05:21:33.881Z,1006.4
2017-07-19T05:22:33.864Z,1006.4
2017-07-19T05:23:33.854Z,1006.4
2017-07-19T05:24:33.839Z,1006.37
2017-07-19T05:25:33.824Z,1006.37
2017-07-19T05:26:33.808Z,1006.38
2017-07-19T05:27:33.797Z,1006.4
2017-07-19T05:28:33.789Z,1006.36
2017-07-19T05:29:33.785Z,1006.36
2017-07-19T05:30:33.761Z,1006.31
2017-07-19T05:31:33.745Z,1006.31
2017-07-19T05:32:33.726Z,1006.29
2017-07-19T05:33:33.713Z,1006.32
2017-07-19T05:34:33.705Z,1006.32
2017-07-19T05:35:33.687Z,1006.33
2017-07-19T05:36:33.677Z,1006.33
2017-07-19T05:37:33.663Z,1006.37
2017-07-19T05:38:33.645Z,1006.36
2017-07-19T05:39:33.637Z,1006.33
2017-07-19T05:40:33.620Z,1006.34
2017-07-19T05:41:33.607Z,1006.31
2017-07-19T05:42:33.602Z,1006.29
2017-07-19T05:43:33.583Z,1006.33
2017-07-19T05:44:33.569Z,1006.36
2017-07-19T05:45:33.552Z,1006.34
2017-07-19T05:46:33.538Z,1006.35
2017-07-19T05:47:33.527Z,1006.33
2017-07-19T05:48:33.511Z,1006.32
2017-07-19T05:49:33.499Z,1006.33
2017-07-19T05:50:33.487Z,1006.28
2017-07-19T05:51:33.480Z,1006.3
2017-07-19T05:52:33.469Z,1006.26
2017-07-19T05:53:33.448Z,1006.26
2017-07-19T05:54:33.432Z,1006.2
2017-07-19T05:55:33.418Z,1006.24
2017-07-19T05:56:33.402Z,1006.14
2017-07-19T05:57:33.395Z,1006.18
2017-07-19T05:58:33.386Z,1006.14
2017-07-19T05:59:33.367Z,1006.18
2017-07-19T06:00:33.357Z,1006.16
2017-07-19T06:01:33.338Z,1006.15
2017-07-19T06:02:33.324Z,1006.16
2017-07-19T06:03:33.325Z,1006.2
2017-07-19T06:04:33.303Z,1006.26
2017-07-19T06:05:33.286Z,1006.25
2017-07-19T06:06:33.274Z,1006.25
2017-07-19T06:07:33.262Z,1006.21
2017-07-19T06:08:33.248Z,1006.21
2017-07-19T06:09:33.236Z,1006.21
2017-07-19T06:10:33.222Z,1006.16
2017-07-19T06:11:33.213Z,1006.16
2017-07-19T06:12:33.196Z,1006.08
2017-07-19T06:13:33.182Z,1006.11
2017-07-19T06:14:33.176Z,1006.13
2017-07-19T06:15:33.157Z,1006.14
2017-07-19T06:16:33.144Z,1006.13
2017-07-19T06:17:33.136Z,1006.12
2017-07-19T06:18:33.120Z,1006.14
2017-07-19T06:19:33.104Z,1006.11
2017-07-19T06:20:33.093Z,1006.11
2017-07-19T06:21:33.082Z,1006.13
2017-07-19T06:22:33.066Z,1006.09
2017-07-19T06:23:33.068Z,1006.14
2017-07-19T06:24:33.041Z,1006.09
2017-07-19T06:25:33.031Z,1006.09
2017-07-19T06:26:33.017Z,1006.05
2017-07-19T06:27:33.005Z,1006.07
2017-07-19T06:28:32.993Z,1006.09
2017-07-19T06:29:32.979Z,1006.05
2017-07-19T06:30:32.963Z,1006.05
2017-07-19T06:31:32.966Z,1006.09
2017-07-19T06:32:32.957Z,1006.06
2017-07-19T06:33:32.935Z,1005.99
2017-07-19T06:34:32.931Z,1006.01
2017-07-19T06:35:32.905Z,1006.03
2017-07-19T06:36:32.896Z,1006.03
2017-07-19T06:37:32.885Z,1006.03
2017-07-19T06:38:32.867Z,1006.05
2017-07-19T06:39:32.855Z,1006.06
2017-07-19T06:40:32.923Z,1006.08
2017-07-19T06:41:32.832Z,1006.11
2017-07-19T06:42:32.966Z,1006.09
2017-07-19T06:43:32.820Z,1006.07
2017-07-19T06:44:32.831Z,1006.12
2017-07-19T06:45:32.783Z,1006.1
2017-07-19T06:46:32.774Z,1006.04
2017-07-19T06:47:32.767Z,1006.07
2017-07-19T06:48:32.749Z,1006.03
2017-07-19T06:49:32.737Z,1006.04
2017-07-19T06:50:32.767Z,1006.01
2017-07-19T06:51:32.713Z,1005.96
2017-07-19T06:52:32.706Z,1005.96
2017-07-19T06:53:32.720Z,1005.99
2017-07-19T06:54:32.674Z,1005.99
2017-07-19T06:55:32.664Z,1005.98
2017-07-19T06:56:32.652Z,1005.91
2017-07-19T06:57:32.642Z,1005.88
2017-07-19T06:58:32.642Z,1005.87
2017-07-19T06:59:32.623Z,1005.86
2017-07-19T07:00:32.606Z,1005.78
2017-07-19T07:01:32.596Z,1005.72
2017-07-19T07:02:32.581Z,1005.67
2017-07-19T07:03:32.564Z,1005.63
2017-07-19T07:04:32.561Z,1005.56
2017-07-19T07:05:32.544Z,1005.57
2017-07-19T07:06:32.535Z,1005.52
2017-07-19T07:07:32.518Z,1005.53
2017-07-19T07:08:32.515Z,1005.55
2017-07-19T07:09:32.504Z,1005.48
2017-07-19T07:10:32.487Z,1005.45
2017-07-19T07:11:32.475Z,1005.43
2017-07-19T07:12:32.472Z,1005.36
2017-07-19T07:13:32.454Z,1005.36
2017-07-19T07:14:32.443Z,1005.37
2017-07-19T07:15:32.432Z,1005.37
2017-07-19T07:16:32.421Z,1005.42
2017-07-19T07:17:32.404Z,1005.31
2017-07-19T07:18:32.396Z,1005.29
2017-07-19T07:19:32.385Z,1005.28
2017-07-19T07:20:32.379Z,1005.25
2017-07-19T07:21:32.362Z,1005.34
2017-07-19T07:22:32.364Z,1005.31
2017-07-19T07:23:32.338Z,1005.32
2017-07-19T07:24:32.334Z,1005.33
2017-07-19T07:25:32.316Z,1005.31
2017-07-19T07:26:32.306Z,1005.31
2017-07-19T07:27:32.296Z,1005.29
2017-07-19T07:28:32.283Z,1005.29
2017-07-19T07:29:32.284Z,1005.24
2017-07-19T07:30:32.270Z,1005.24
2017-07-19T07:31:32.252Z,1005.22
2017-07-19T07:32:32.238Z,1005.22
2017-07-19T07:33:32.233Z,1005.25
2017-07-19T07:34:32.226Z,1005.24
2017-07-19T07:35:32.215Z,1005.27
2017-07-19T07:36:32.208Z,1005.26
2017-07-19T07:37:32.195Z,1005.27
2017-07-19T07:38:32.177Z,1005.3
2017-07-19T07:39:32.163Z,1005.25
2017-07-19T07:40:32.154Z,1005.25
2017-07-19T07:41:32.145Z,1005.28
2017-07-19T07:42:32.137Z,1005.19
2017-07-19T07:43:32.125Z,1005.2
2017-07-19T07:44:32.114Z,1005.24
2017-07-19T07:45:32.104Z,1005.25
2017-07-19T07:46:32.095Z,1005.27
2017-07-19T07:47:32.086Z,1005.22
2017-07-19T07:48:32.073Z,1005.27
2017-07-19T07:49:32.064Z,1005.23
2017-07-19T07:50:32.054Z,1005.23
2017-07-19T07:51:32.048Z,1005.23
2017-07-19T07:52:32.043Z,1005.2
2017-07-19T07:53:32.024Z,1005.19
2017-07-19T07:54:32.015Z,1005.14
2017-07-19T07:55:32.005Z,1005.16
2017-07-19T07:56:31.990Z,1005.13
2017-07-19T07:57:31.983Z,1005.11
2017-07-19T07:58:31.974Z,1005.06
2017-07-19T07:59:31.964Z,1005.11
2017-07-19T08:00:31.952Z,1005.06
2017-07-19T08:01:31.943Z,1005.05
2017-07-19T08:02:31.936Z,1005.05
2017-07-19T08:03:31.924Z,1005.05
2017-07-19T08:04:31.914Z,1005.04
2017-07-19T08:05:31.914Z,1005.02
2017-07-19T08:06:31.900Z,1005.03
2017-07-19T08:07:31.893Z,1005.08
2017-07-19T08:08:31.887Z,1005.11
2017-07-19T08:09:31.869Z,1005.12
2017-07-19T08:10:31.863Z,1005.12
2017-07-19T08:11:31.853Z,1005.13
2017-07-19T08:12:31.841Z,1005.14
2017-07-19T08:13:31.836Z,1005.15
2017-07-19T08:14:31.832Z,1005.11
2017-07-19T08:15:31.814Z,1005.1
2017-07-19T08:16:31.813Z,1005.08
2017-07-19T08:17:31.811Z,1005.11
2017-07-19T08:18:31.794Z,1005.08
2017-07-19T08:19:31.776Z,1005.04
2017-07-19T08:20:31.773Z,1005.07
2017-07-19T08:21:31.767Z,1005.07
2017-07-19T08:22:31.763Z,1005.08
2017-07-19T08:23:31.746Z,1005.08
2017-07-19T08:24:31.735Z,1004.99
2017-07-19T08:25:31.726Z,1004.99
2017-07-19T08:26:31.715Z,1004.99
2017-07-19T08:27:31.715Z,1004.9
2017-07-19T08:28:31.705Z,1004.87
2017-07-19T08:29:31.694Z,1004.86
2017-07-19T08:30:31.681Z,1004.85
2017-07-19T08:31:31.690Z,1004.81
2017-07-19T08:32:31.665Z,1004.7
2017-07-19T08:33:31.689Z,1004.71
2017-07-19T08:34:31.650Z,1004.67
2017-07-19T08:35:31.646Z,1004.68
2017-07-19T08:36:31.634Z,1004.68
2017-07-19T08:37:31.623Z,1004.75
2017-07-19T08:38:31.614Z,1004.84
2017-07-19T08:39:31.614Z,1004.89
2017-07-19T08:40:31.601Z,1004.88
2017-07-19T08:41:31.596Z,1004.98
2017-07-19T08:42:31.589Z,1004.99
2017-07-19T08:43:31.582Z,1004.98
2017-07-19T08:44:31.569Z,1005
2017-07-19T08:45:31.564Z,1004.92
2017-07-19T08:46:31.553Z,1004.9
2017-07-19T08:47:31.555Z,1004.94
2017-07-19T08:48:31.545Z,1004.9
2017-07-19T08:49:31.537Z,1004.89
2017-07-19T08:50:31.522Z,1004.88
2017-07-19T08:51:31.526Z,1004.87
2017-07-19T08:52:31.516Z,1004.91
2017-07-19T08:53:31.505Z,1004.92
2017-07-19T08:54:31.493Z,1004.9
2017-07-19T08:55:31.491Z,1004.88
2017-07-19T08:56:31.485Z,1004.85
2017-07-19T08:57:31.492Z,1004.86
2017-07-19T08:58:31.466Z,1004.87
2017-07-19T08:59:31.467Z,1004.89
2017-07-19T09:00:31.460Z,1004.81
2017-07-19T09:01:31.449Z,1004.92
2017-07-19T09:02:31.441Z,1004.88
2017-07-19T09:03:31.436Z,1004.8
2017-07-19T09:04:31.434Z,1004.8
2017-07-19T09:05:31.430Z,1004.76
2017-07-19T09:06:31.664Z,1004.72
2017-07-19T09:07:31.411Z,1004.7
2017-07-19T09:08:31.405Z,1004.76
2017-07-19T09:09:31.408Z,1004.81
2017-07-19T09:10:31.399Z,1004.84
2017-07-19T09:11:31.399Z,1004.84
2017-07-19T09:12:31.381Z,1004.83
2017-07-19T09:13:31.385Z,1004.95
2017-07-19T09:14:31.370Z,1004.91
2017-07-19T09:15:31.368Z,1004.9
2017-07-19T09:16:31.362Z,1004.93
2017-07-19T09:17:31.358Z,1004.87
2017-07-19T09:18:31.357Z,1004.94
2017-07-19T09:19:31.347Z,1004.91
2017-07-19T09:20:31.346Z,1004.88
2017-07-19T09:21:31.338Z,1004.83
2017-07-19T09:22:31.338Z,1004.82
2017-07-19T09:23:31.339Z,1004.81
2017-07-19T09:24:31.326Z,1004.75
2017-07-19T09:25:31.322Z,1004.67
2017-07-19T09:26:31.318Z,1004.67
2017-07-19T09:27:31.319Z,1004.68
2017-07-19T09:28:31.319Z,1004.66
2017-07-19T09:29:31.308Z,1004.67
2017-07-19T09:30:31.302Z,1004.69
2017-07-19T09:31:31.299Z,1004.61
2017-07-19T09:32:31.296Z,1004.59
2017-07-19T09:33:31.288Z,1004.58
2017-07-19T09:34:31.288Z,1004.53
2017-07-19T09:35:31.287Z,1004.58
2017-07-19T09:36:31.287Z,1004.51
2017-07-19T09:37:31.272Z,1004.57
2017-07-19T09:38:31.279Z,1004.61
2017-07-19T09:39:31.265Z,1004.59
2017-07-19T09:40:31.264Z,1004.54
2017-07-19T09:41:31.265Z,1004.55
2017-07-19T09:42:31.258Z,1004.5
2017-07-19T09:43:31.260Z,1004.45
2017-07-19T09:44:31.255Z,1004.43
2017-07-19T09:45:31.249Z,1004.46
2017-07-19T09:46:31.347Z,1004.49
2017-07-19T09:47:31.240Z,1004.37
2017-07-19T09:48:31.248Z,1004.35
2017-07-19T09:49:31.237Z,1004.37
2017-07-19T09:50:31.234Z,1004.35
2017-07-19T09:51:31.233Z,1004.37
2017-07-19T09:52:31.237Z,1004.41
2017-07-19T09:53:31.247Z,1004.37
2017-07-19T09:54:31.233Z,1004.38
2017-07-19T09:55:31.236Z,1004.33
2017-07-19T09:56:31.224Z,1004.33
2017-07-19T09:57:31.221Z,1004.29
2017-07-19T09:58:31.229Z,1004.31
2017-07-19T09:59:31.227Z,1004.31
2017-07-19T10:00:31.228Z,1004.32
2017-07-19T10:01:31.233Z,1004.35
2017-07-19T10:02:31.220Z,1004.35
2017-07-19T10:03:31.217Z,1004.38
2017-07-19T10:04:31.220Z,1004.34
2017-07-19T10:05:31.218Z,1004.41
2017-07-19T10:06:31.217Z,1004.45
2017-07-19T10:07:31.210Z,1004.44
2017-07-19T10:08:31.207Z,1004.39
2017-07-19T10:09:31.311Z,1004.38
2017-07-19T10:10:31.209Z,1004.4
2017-07-19T10:11:31.205Z,1004.37
2017-07-19T10:12:31.208Z,1004.35
2017-07-19T10:13:31.255Z,1004.29
2017-07-19T10:14:31.205Z,1004.26
2017-07-19T10:15:31.208Z,1004.25
2017-07-19T10:16:31.204Z,1004.34
2017-07-19T10:17:31.207Z,1004.26
2017-07-19T10:18:31.198Z,1004.29
2017-07-19T10:19:31.199Z,1004.3
2017-07-19T10:20:31.200Z,1004.28
2017-07-19T10:21:31.198Z,1004.28
2017-07-19T10:22:31.194Z,1004.3
2017-07-19T10:23:31.189Z,1004.27
2017-07-19T10:24:31.189Z,1004.24
2017-07-19T10:25:31.186Z,1004.25
2017-07-19T10:26:31.188Z,1004.21
2017-07-19T10:27:31.180Z,1004.2
2017-07-19T10:28:31.188Z,1004.17
2017-07-19T10:29:31.184Z,1004.13
2017-07-19T10:30:31.188Z,1004.13
2017-07-19T10:31:31.178Z,1004.14
2017-07-19T10:32:31.174Z,1004.09
2017-07-19T10:33:31.179Z,1004.06
2017-07-19T10:34:31.179Z,1004.05
2017-07-19T10:35:31.180Z,1004.04
2017-07-19T10:36:31.177Z,1003.97
2017-07-19T10:37:31.169Z,1003.98
2017-07-19T10:38:31.168Z,1003.96
2017-07-19T10:39:31.169Z,1003.93
2017-07-19T10:40:31.168Z,1003.94
2017-07-19T10:41:31.156Z,1003.95
2017-07-19T10:42:31.160Z,1003.92
2017-07-19T10:43:31.153Z,1003.94
2017-07-19T10:44:31.149Z,1003.95
2017-07-19T10:45:31.171Z,1003.92
2017-07-19T10:46:31.190Z,1003.94
2017-07-19T10:47:31.140Z,1003.93
2017-07-19T10:48:31.138Z,1003.94
2017-07-19T10:49:31.137Z,1003.9
2017-07-19T10:50:31.148Z,1003.91
2017-07-19T10:51:31.124Z,1003.87
2017-07-19T10:52:31.121Z,1003.94
2017-07-19T10:53:31.121Z,1003.92
2017-07-19T10:54:31.116Z,1003.92
2017-07-19T10:55:31.125Z,1003.89
2017-07-19T10:56:31.115Z,1003.88
2017-07-19T10:57:31.111Z,1003.83
2017-07-19T10:58:31.107Z,1003.81
2017-07-19T10:59:31.105Z,1003.76
2017-07-19T11:00:31.092Z,1003.73
2017-07-19T11:01:31.093Z,1003.73
2017-07-19T11:02:31.085Z,1003.71
2017-07-19T11:03:31.087Z,1003.73
2017-07-19T11:04:31.084Z,1003.74
2017-07-19T11:05:31.077Z,1003.65
2017-07-19T11:06:31.077Z,1003.7
2017-07-19T11:07:31.076Z,1003.67
2017-07-19T11:08:31.070Z,1003.63
2017-07-19T11:09:31.073Z,1003.54
2017-07-19T11:10:31.059Z,1003.53
2017-07-19T11:11:31.106Z,1003.49
2017-07-19T11:12:31.055Z,1003.44
2017-07-19T11:13:31.050Z,1003.45
2017-07-19T11:14:31.046Z,1003.44
2017-07-19T11:15:31.096Z,1003.47
2017-07-19T11:16:31.030Z,1003.43
2017-07-19T11:17:31.026Z,1003.39
2017-07-19T11:18:31.027Z,1003.39
2017-07-19T11:19:31.024Z,1003.36
2017-07-19T11:20:31.015Z,1003.39
2017-07-19T11:21:31.014Z,1003.31
2017-07-19T11:22:31.013Z,1003.28
2017-07-19T11:23:31.006Z,1003.26
2017-07-19T11:24:31.009Z,1003.23
2017-07-19T11:25:31.000Z,1003.2
2017-07-19T11:26:30.999Z,1003.21
2017-07-19T11:27:31.001Z,1003.16
2017-07-19T11:28:30.993Z,1003.14
2017-07-19T11:29:30.985Z,1003.11
2017-07-19T11:30:30.986Z,1003.11
2017-07-19T11:31:30.978Z,1003.06
2017-07-19T11:32:30.971Z,1003.1
2017-07-19T11:33:30.972Z,1003.11
2017-07-19T11:34:30.966Z,1003.12
2017-07-19T11:35:30.967Z,1003.1
2017-07-19T11:36:30.966Z,1003.03
2017-07-19T11:37:30.954Z,1002.99
2017-07-19T11:38:30.954Z,1002.94
2017-07-19T11:39:30.954Z,1002.93
2017-07-19T11:40:30.950Z,1002.84
2017-07-19T11:41:30.939Z,1002.77
2017-07-19T11:42:30.943Z,1002.83
2017-07-19T11:43:30.932Z,1002.81
2017-07-19T11:44:30.979Z,1002.79
2017-07-19T11:45:30.927Z,1002.76
2017-07-19T11:46:30.976Z,1002.84
2017-07-19T11:47:30.919Z,1002.8
2017-07-19T11:48:30.913Z,1002.79
2017-07-19T11:49:30.914Z,1002.75
2017-07-19T11:50:30.912Z,1002.8
2017-07-19T11:51:30.906Z,1002.83
2017-07-19T11:52:30.899Z,1002.81
2017-07-19T11:53:30.903Z,1002.78
2017-07-19T11:54:30.897Z,1002.73
2017-07-19T11:55:30.894Z,1002.76
2017-07-19T11:56:30.885Z,1002.78
2017-07-19T11:57:30.883Z,1002.79
2017-07-19T11:58:30.882Z,1002.77
2017-07-19T11:59:30.874Z,1002.79
2017-07-19T12:00:30.874Z,1002.89
2017-07-19T12:01:30.868Z,1002.89
2017-07-19T12:02:30.863Z,1002.86
2017-07-19T12:03:30.866Z,1002.88
2017-07-19T12:04:30.865Z,1002.9
2017-07-19T12:05:30.868Z,1002.91
2017-07-19T12:06:30.873Z,1002.88
2017-07-19T12:07:30.847Z,1002.87
2017-07-19T12:08:30.844Z,1002.84